createdAt,value
2022-11-29T00:01:38.669Z,22.60
2022-11-29T00:04:06.326Z,24.17
2022-11-29T00:06:35.671Z,23.80
2022-11-29T00:09:11.816Z,22.77
2022-11-29T00:12:01.784Z,21.77
2022-11-29T00:14:29.719Z,22.03
2022-11-29T00:17:02.199Z,23.67
2022-11-29T00:19:31.705Z,22.93
2022-11-29T00:22:00.115Z,24.07
2022-11-29T00:24:27.457Z,23.00
2022-11-29T00:26:54.593Z,22.67
2022-11-29T00:29:21.686Z,24.33
2022-11-29T00:31:48.921Z,23.90
2022-11-29T00:34:16.086Z,22.40
2022-11-29T00:36:43.305Z,21.67
2022-11-29T00:39:12.095Z,23.00
2022-11-29T00:41:39.747Z,22.03
2022-11-29T00:44:07.114Z,23.07
2022-11-29T00:46:34.532Z,23.13
2022-11-29T00:49:01.999Z,21.20
2022-11-29T00:51:29.106Z,22.40
2022-11-29T00:53:56.302Z,21.50
2022-11-29T00:56:23.498Z,21.97
2022-11-29T00:58:50.712Z,22.47
2022-11-29T01:01:18.161Z,22.23
2022-11-29T01:03:45.429Z,22.33
2022-11-29T01:06:15.687Z,22.67
2022-11-29T01:08:45.601Z,22.30
2022-11-29T01:11:22.221Z,22.07
2022-11-29T01:13:51.471Z,22.40
2022-11-29T01:16:18.833Z,21.40
2022-11-29T01:18:46.074Z,22.00
2022-11-29T01:21:16.959Z,21.93
2022-11-29T01:23:45.800Z,22.30
2022-11-29T01:26:26.078Z,21.40
2022-11-29T01:28:55.969Z,21.93
2022-11-29T01:31:37.513Z,21.07
2022-11-29T01:34:06.817Z,21.33
2022-11-29T01:36:35.309Z,21.23
2022-11-29T01:39:05.113Z,20.57
2022-11-29T01:41:34.902Z,21.10
2022-11-29T01:44:26.661Z,20.90
2022-11-29T01:46:54.773Z,21.10
2022-11-29T01:49:24.853Z,22.03
2022-11-29T01:52:09.587Z,20.63
2022-11-29T01:54:43.042Z,21.03
2022-11-29T01:57:11.496Z,20.73
2022-11-29T01:59:45.846Z,20.13
2022-11-29T02:02:23.802Z,21.60
2022-11-29T02:04:51.631Z,21.97
2022-11-29T02:07:19.109Z,21.10
2022-11-29T02:09:46.441Z,21.37
2022-11-29T02:12:44.808Z,22.43
2022-11-29T02:15:39.512Z,22.00
2022-11-29T02:18:37.114Z,21.13
2022-11-29T02:21:58.281Z,22.67
2022-11-29T02:25:16.348Z,21.83
2022-11-29T02:28:24.329Z,22.10
2022-11-29T02:31:28.713Z,20.97
2022-11-29T02:34:33.721Z,22.63
2022-11-29T02:37:11.379Z,22.87
2022-11-29T02:40:20.312Z,22.37
2022-11-29T02:43:52.809Z,23.63
2022-11-29T02:46:58.277Z,23.60
2022-11-29T02:49:50.315Z,22.30
2022-11-29T02:52:56.038Z,22.63
2022-11-29T02:55:53.906Z,23.33
2022-11-29T02:58:34.087Z,23.20
2022-11-29T03:01:25.013Z,24.13
2022-11-29T03:04:26.190Z,24.00
2022-11-29T03:07:41.661Z,25.30
2022-11-29T03:10:42.723Z,24.63
2022-11-29T03:13:23.932Z,25.03
2022-11-29T03:16:23.793Z,23.53
2022-11-29T03:19:20.965Z,24.40
2022-11-29T03:22:45.846Z,24.63
2022-11-29T03:25:37.414Z,24.37
2022-11-29T03:29:01.071Z,24.10
2022-11-29T03:32:02.337Z,24.93
2022-11-29T03:35:10.055Z,26.27
2022-11-29T03:38:05.703Z,27.40
2022-11-29T03:41:05.985Z,25.40
2022-11-29T03:43:52.742Z,26.73
2022-11-29T03:46:37.030Z,27.37
2022-11-29T03:49:13.762Z,25.73
2022-11-29T03:52:00.261Z,27.23
2022-11-29T03:54:49.977Z,25.37
2022-11-29T03:57:29.488Z,26.27
2022-11-29T04:00:10.906Z,27.23
2022-11-29T04:03:17.070Z,26.60
2022-11-29T04:06:08.567Z,28.33
2022-11-29T04:08:41.476Z,27.57
2022-11-29T04:11:54.810Z,27.37
2022-11-29T04:14:43.452Z,29.03
2022-11-29T04:17:32.497Z,27.87
2022-11-29T04:20:47.845Z,29.23
2022-11-29T04:23:51.269Z,27.83
2022-11-29T04:26:52.320Z,29.43
2022-11-29T04:29:37.738Z,28.73
2022-11-29T04:32:35.634Z,29.23
2022-11-29T04:35:18.808Z,29.40
2022-11-29T04:38:30.636Z,29.10
2022-11-29T04:41:32.898Z,28.80
2022-11-29T04:44:36.873Z,30.40
2022-11-29T04:47:21.310Z,30.60
2022-11-29T04:50:13.308Z,28.40
2022-11-29T04:53:28.595Z,28.13
2022-11-29T04:56:29.257Z,30.10
2022-11-29T04:59:30.071Z,30.03
2022-11-29T05:02:18.756Z,30.70
2022-11-29T05:05:08.189Z,30.67
2022-11-29T05:07:53.180Z,29.97
2022-11-29T05:10:29.339Z,31.40
2022-11-29T05:13:28.269Z,30.27
2022-11-29T05:16:41.200Z,31.10
2022-11-29T05:20:00.924Z,30.67
2022-11-29T05:22:59.157Z,30.13
2022-11-29T05:25:45.106Z,29.40
2022-11-29T05:28:20.422Z,30.40
2022-11-29T05:31:18.363Z,31.60
2022-11-29T05:33:57.489Z,30.90
2022-11-29T05:36:43.844Z,30.67
2022-11-29T05:40:01.858Z,32.47
2022-11-29T05:43:04.892Z,31.70
2022-11-29T05:45:44.814Z,31.40
2022-11-29T05:48:33.577Z,31.80
2022-11-29T05:51:31.089Z,33.43
2022-11-29T05:54:18.544Z,32.23
2022-11-29T05:57:21.738Z,32.83
2022-11-29T05:59:51.496Z,33.40
2022-11-29T06:02:52.043Z,32.67
2022-11-29T06:05:46.875Z,33.07
2022-11-29T06:08:18.828Z,32.13
2022-11-29T06:11:16.575Z,33.63
2022-11-29T06:14:05.661Z,32.97
2022-11-29T06:17:12.400Z,33.43
2022-11-29T06:19:49.102Z,34.47
2022-11-29T06:22:43.223Z,33.47
2022-11-29T06:25:37.377Z,34.03
2022-11-29T06:28:44.434Z,36.77
2022-11-29T06:31:38.299Z,34.47
2022-11-29T06:34:41.394Z,37.10
2022-11-29T06:37:35.731Z,34.13
2022-11-29T06:40:04.008Z,35.73
2022-11-29T06:42:31.386Z,36.30
2022-11-29T06:44:59.045Z,35.03
2022-11-29T06:48:11.106Z,33.93
2022-11-29T06:51:01.127Z,33.60
2022-11-29T06:53:33.991Z,33.80
2022-11-29T06:56:23.397Z,34.53
2022-11-29T06:58:52.211Z,35.17
2022-11-29T07:01:53.187Z,36.03
2022-11-29T07:05:16.657Z,34.20
2022-11-29T07:08:03.655Z,34.20
2022-11-29T07:10:38.183Z,34.87
2022-11-29T07:13:06.178Z,37.20
2022-11-29T07:15:36.129Z,36.33
2022-11-29T07:18:28.727Z,36.63
2022-11-29T07:21:52.383Z,35.93
2022-11-29T07:24:42.747Z,36.10
2022-11-29T07:27:23.222Z,37.07
2022-11-29T07:30:17.172Z,35.80
2022-11-29T07:33:20.691Z,34.07
2022-11-29T07:36:16.332Z,36.03
2022-11-29T07:39:09.107Z,35.10
2022-11-29T07:41:53.164Z,35.70
2022-11-29T07:44:44.589Z,35.17
2022-11-29T07:47:15.864Z,35.57
2022-11-29T07:49:43.096Z,35.20
2022-11-29T07:52:16.727Z,36.03
2022-11-29T07:54:44.550Z,35.43
2022-11-29T07:57:11.939Z,37.27
2022-11-29T08:00:04.415Z,35.77
2022-11-29T08:02:38.801Z,35.67
2022-11-29T08:05:07.005Z,35.17
2022-11-29T08:07:36.701Z,37.80
2022-11-29T08:10:08.114Z,38.17
2022-11-29T08:12:35.261Z,35.03
2022-11-29T08:15:02.714Z,35.97
2022-11-29T08:17:29.890Z,36.53
2022-11-29T08:20:00.018Z,35.63
2022-11-29T08:22:30.900Z,35.87
2022-11-29T08:24:58.495Z,36.20
2022-11-29T08:27:26.117Z,66.63
2022-11-29T08:29:53.275Z,41.17
2022-11-29T08:32:20.355Z,35.27
2022-11-29T08:34:47.841Z,34.87
2022-11-29T08:37:15.094Z,35.27
2022-11-29T08:39:42.185Z,34.80
2022-11-29T08:42:09.546Z,35.47
2022-11-29T08:44:36.640Z,35.87
2022-11-29T08:47:22.864Z,35.27
2022-11-29T08:50:02.219Z,35.10
2022-11-29T08:52:50.777Z,36.53
2022-11-29T08:55:22.782Z,35.37
2022-11-29T08:58:08.975Z,35.50
2022-11-29T09:00:36.876Z,35.43
2022-11-29T09:03:28.455Z,36.80
2022-11-29T09:05:56.235Z,37.53
2022-11-29T09:08:23.437Z,36.00
2022-11-29T09:10:51.272Z,36.13
2022-11-29T09:13:18.425Z,36.57
2022-11-29T09:15:46.309Z,37.80
2022-11-29T09:18:13.668Z,36.77
2022-11-29T09:20:45.794Z,37.17
2022-11-29T09:23:13.555Z,35.03
2022-11-29T09:25:40.827Z,36.17
2022-11-29T09:28:08.581Z,36.13
2022-11-29T09:30:40.272Z,35.47
2022-11-29T09:33:07.371Z,35.43
2022-11-29T09:35:35.159Z,35.90
2022-11-29T09:38:02.238Z,33.00
2022-11-29T09:40:48.634Z,38.73
2022-11-29T09:43:38.822Z,34.63
2022-11-29T09:46:29.820Z,34.13
2022-11-29T09:49:38.668Z,34.03
2022-11-29T09:52:21.125Z,33.30
2022-11-29T09:55:00.608Z,34.33
2022-11-29T09:57:31.256Z,34.33
2022-11-29T10:00:06.737Z,33.90
2022-11-29T10:02:45.794Z,34.47
2022-11-29T10:05:49.960Z,49.10
2022-11-29T10:08:51.900Z,34.63
2022-11-29T10:11:46.303Z,34.00
2022-11-29T10:14:23.449Z,33.57
2022-11-29T10:17:24.616Z,33.47
2022-11-29T10:19:58.821Z,34.33
2022-11-29T10:22:42.853Z,32.10
2022-11-29T10:25:23.704Z,31.97
2022-11-29T10:27:54.658Z,31.70
2022-11-29T10:30:23.662Z,31.20
2022-11-29T10:32:58.477Z,31.37
2022-11-29T10:35:29.090Z,32.13
2022-11-29T10:40:55.301Z,31.20
2022-11-29T10:43:24.185Z,32.27
2022-11-29T10:45:56.609Z,31.13
2022-11-29T10:48:34.226Z,31.13
2022-11-29T10:51:02.195Z,30.93
2022-11-29T10:53:37.724Z,32.30
2022-11-29T10:56:19.079Z,30.57
2022-11-29T10:59:09.334Z,30.80
2022-11-29T11:01:41.888Z,33.13
2022-11-29T11:04:36.573Z,31.43
2022-11-29T11:07:06.800Z,31.17
2022-11-29T11:09:50.074Z,30.83
2022-11-29T11:12:23.324Z,30.83
2022-11-29T11:14:53.780Z,30.70
2022-11-29T11:17:30.196Z,44.03
2022-11-29T11:20:19.101Z,31.83
2022-11-29T11:23:02.837Z,29.70
2022-11-29T11:25:39.582Z,30.70
2022-11-29T11:28:26.801Z,29.50
2022-11-29T11:31:02.406Z,28.70
2022-11-29T11:33:37.874Z,29.23
2022-11-29T11:36:28.152Z,30.27
2022-11-29T11:39:13.755Z,28.57
2022-11-29T11:42:06.683Z,29.37
2022-11-29T11:44:49.995Z,29.10
2022-11-29T11:47:21.982Z,28.67
2022-11-29T11:50:04.532Z,27.77
2022-11-29T11:52:54.161Z,28.10
2022-11-29T11:55:21.436Z,28.67
2022-11-29T11:58:13.063Z,27.70
2022-11-29T12:01:14.783Z,27.70
2022-11-29T12:04:06.260Z,28.30
2022-11-29T12:06:59.917Z,28.93
2022-11-29T12:09:27.681Z,28.90
2022-11-29T12:12:08.174Z,28.27
2022-11-29T12:15:06.061Z,28.77
2022-11-29T12:17:57.504Z,27.03
2022-11-29T12:20:42.408Z,28.00
2022-11-29T12:23:12.357Z,27.97
2022-11-29T12:25:52.652Z,29.27
2022-11-29T12:28:22.637Z,27.47
2022-11-29T12:31:28.893Z,26.60
2022-11-29T12:34:43.019Z,26.53
2022-11-29T12:37:32.317Z,26.87
2022-11-29T12:40:35.527Z,27.87
2022-11-29T12:43:31.536Z,27.87
2022-11-29T12:46:24.104Z,27.83
2022-11-29T12:49:27.082Z,27.50
2022-11-29T12:52:25.587Z,29.60
2022-11-29T12:55:27.117Z,29.67
2022-11-29T12:58:48.825Z,28.60
2022-11-29T13:01:28.238Z,28.23
2022-11-29T13:04:20.058Z,27.43
2022-11-29T13:07:06.698Z,28.97
2022-11-29T13:10:02.553Z,29.43
2022-11-29T13:12:44.024Z,28.50
2022-11-29T13:16:01.277Z,31.83
2022-11-29T13:18:55.361Z,30.33
2022-11-29T13:22:05.897Z,29.50
2022-11-29T13:24:42.900Z,29.67
2022-11-29T13:27:21.195Z,29.30
2022-11-29T13:29:49.014Z,30.13
2022-11-29T13:32:37.689Z,42.53
2022-11-29T13:35:21.128Z,29.87
2022-11-29T13:38:16.530Z,29.37
2022-11-29T13:40:58.628Z,29.40
2022-11-29T13:44:19.889Z,30.83
2022-11-29T13:46:53.883Z,29.40
2022-11-29T13:49:42.252Z,30.23
2022-11-29T13:52:40.866Z,28.60
2022-11-29T13:55:11.594Z,30.43
2022-11-29T14:00:43.750Z,28.70
2022-11-29T14:04:04.750Z,28.83
2022-11-29T14:06:36.021Z,28.17
2022-11-29T14:09:26.903Z,29.57
2022-11-29T14:12:01.183Z,30.57
2022-11-29T14:14:38.074Z,31.30
2022-11-29T14:17:47.141Z,30.27
2022-11-29T14:20:23.335Z,29.83
2022-11-29T14:23:05.683Z,28.43
2022-11-29T14:25:51.509Z,30.40
2022-11-29T14:28:22.173Z,30.73
2022-11-29T14:30:58.472Z,30.63
2022-11-29T14:33:44.443Z,29.53
2022-11-29T14:36:33.224Z,30.83
2022-11-29T14:39:27.854Z,29.43
2022-11-29T14:42:20.117Z,28.60
2022-11-29T14:44:52.444Z,30.00
2022-11-29T14:47:25.804Z,29.93
2022-11-29T14:49:55.900Z,31.87
2022-11-29T14:52:41.060Z,29.73
2022-11-29T14:55:34.015Z,29.20
2022-11-29T14:58:01.214Z,29.73
2022-11-29T15:00:29.686Z,27.87
2022-11-29T15:03:33.963Z,29.23
2022-11-29T15:06:15.351Z,30.57
2022-11-29T15:08:55.953Z,30.07
2022-11-29T15:11:53.097Z,30.00
2022-11-29T15:14:32.154Z,30.63
2022-11-29T15:17:22.276Z,30.03
2022-11-29T15:20:06.307Z,30.00
2022-11-29T15:22:52.769Z,31.73
2022-11-29T15:25:24.979Z,30.53
2022-11-29T15:27:54.222Z,30.67
2022-11-29T15:30:42.275Z,33.17
2022-11-29T15:33:21.947Z,31.70
2022-11-29T15:36:04.609Z,31.33
2022-11-29T15:38:49.843Z,33.40
2022-11-29T15:41:26.830Z,31.57
2022-11-29T15:43:59.235Z,32.20
2022-11-29T15:46:33.134Z,38.43
2022-11-29T15:49:27.417Z,32.10
2022-11-29T15:52:00.350Z,30.33
2022-11-29T15:54:55.006Z,30.23
2022-11-29T15:57:30.253Z,31.57
2022-11-29T16:00:12.254Z,31.80
2022-11-29T16:02:51.728Z,29.73
2022-11-29T16:05:50.304Z,31.07
2022-11-29T16:08:20.796Z,28.23
2022-11-29T16:10:52.960Z,30.40
2022-11-29T16:13:39.887Z,29.80
2022-11-29T16:16:10.235Z,28.50
2022-11-29T16:18:40.953Z,30.20
2022-11-29T16:21:31.125Z,31.03
2022-11-29T16:23:59.178Z,31.90
2022-11-29T16:26:36.263Z,32.10
2022-11-29T16:29:03.890Z,32.37
2022-11-29T16:31:37.265Z,32.90
2022-11-29T16:34:30.657Z,91.37
2022-11-29T16:37:08.673Z,31.97
2022-11-29T16:39:38.353Z,33.13
2022-11-29T16:42:25.840Z,33.00
2022-11-29T16:45:02.532Z,32.73
2022-11-29T16:47:46.486Z,33.27
2022-11-29T16:50:22.709Z,33.77
2022-11-29T16:52:56.165Z,32.97
2022-11-29T16:55:24.493Z,33.27
2022-11-29T16:57:52.241Z,34.23
2022-11-29T17:00:33.519Z,32.63
2022-11-29T17:03:01.023Z,32.93
2022-11-29T17:05:28.810Z,32.67
2022-11-29T17:07:56.421Z,33.30
2022-11-29T17:10:25.817Z,34.07
2022-11-29T17:12:53.250Z,32.57
2022-11-29T17:15:20.443Z,33.23
2022-11-29T17:17:47.841Z,33.73
2022-11-29T17:20:15.128Z,33.63
2022-11-29T17:22:42.303Z,34.10
2022-11-29T17:25:10.896Z,35.00
2022-11-29T17:27:38.125Z,31.80
2022-11-29T17:30:11.350Z,32.00
2022-11-29T17:32:38.652Z,31.53
2022-11-29T17:35:06.216Z,31.93
2022-11-29T17:37:33.500Z,30.67
2022-11-29T17:40:00.851Z,32.73
2022-11-29T17:42:28.024Z,31.80
2022-11-29T17:44:55.237Z,31.03
2022-11-29T17:47:22.422Z,29.93
2022-11-29T17:49:49.601Z,31.57
2022-11-29T17:52:16.947Z,31.30
2022-11-29T17:54:44.152Z,31.30
2022-11-29T17:57:11.328Z,31.43
2022-11-29T17:59:38.590Z,31.43
2022-11-29T18:02:06.083Z,31.97
2022-11-29T18:04:33.664Z,30.23
2022-11-29T18:07:01.556Z,31.93
2022-11-29T18:09:28.685Z,32.83
2022-11-29T18:11:56.070Z,32.30
2022-11-29T18:14:25.269Z,31.80
2022-11-29T18:16:52.735Z,31.07
2022-11-29T18:19:22.309Z,32.67
2022-11-29T18:21:50.300Z,31.17
2022-11-29T18:24:18.462Z,31.60
2022-11-29T18:26:46.109Z,31.60
2022-11-29T18:29:13.323Z,31.73
2022-11-29T18:31:44.431Z,32.40
2022-11-29T18:34:13.994Z,31.90
2022-11-29T18:36:45.200Z,31.47
2022-11-29T18:39:18.661Z,34.63
2022-11-29T18:41:50.183Z,31.70
2022-11-29T18:44:20.283Z,32.57
2022-11-29T18:46:47.918Z,31.80
2022-11-29T18:49:17.479Z,31.57
2022-11-29T18:51:46.290Z,32.77
2022-11-29T18:54:16.391Z,31.00
2022-11-29T18:56:45.054Z,32.20
2022-11-29T18:59:16.890Z,31.90
2022-11-29T19:01:47.779Z,33.43
2022-11-29T19:04:19.766Z,41.70
2022-11-29T19:06:47.646Z,32.83
2022-11-29T19:09:19.354Z,32.23
2022-11-29T19:11:48.603Z,31.97
2022-11-29T19:14:15.760Z,32.53
2022-11-29T19:16:45.893Z,31.90
2022-11-29T19:19:13.206Z,31.97
2022-11-29T19:21:41.371Z,32.10
2022-11-29T19:24:14.577Z,33.13
2022-11-29T19:26:44.916Z,32.27
2022-11-29T19:29:13.807Z,32.67
2022-11-29T19:31:41.658Z,33.03
2022-11-29T19:34:08.806Z,31.80
2022-11-29T19:36:42.766Z,33.60
2022-11-29T19:39:13.490Z,34.57
2022-11-29T19:41:44.309Z,32.73
2022-11-29T19:44:12.541Z,33.53
2022-11-29T19:46:48.416Z,35.47
2022-11-29T19:49:17.170Z,35.10
2022-11-29T19:51:44.678Z,33.60
2022-11-29T19:54:12.251Z,33.33
2022-11-29T19:56:39.677Z,32.43
2022-11-29T19:59:08.905Z,32.93
2022-11-29T20:01:41.830Z,33.53
2022-11-29T20:04:12.483Z,33.60
2022-11-29T20:06:40.253Z,32.03
2022-11-29T20:09:13.428Z,32.17
2022-11-29T20:11:40.535Z,32.70
2022-11-29T20:14:08.774Z,33.50
2022-11-29T20:16:38.119Z,33.60
2022-11-29T20:19:14.626Z,32.97
2022-11-29T20:21:52.262Z,33.47
2022-11-29T20:24:22.217Z,32.83
2022-11-29T20:26:49.963Z,32.83
2022-11-29T20:29:17.859Z,32.93
2022-11-29T20:31:50.247Z,32.93
2022-11-29T20:34:19.860Z,32.37
2022-11-29T20:37:27.070Z,33.43
2022-11-29T20:40:05.116Z,32.30
2022-11-29T20:43:06.020Z,32.70
2022-11-29T20:45:33.480Z,32.97
2022-11-29T20:48:22.830Z,30.83
2022-11-29T20:51:10.653Z,31.53
2022-11-29T20:53:43.260Z,31.60
2022-11-29T20:56:11.958Z,31.03
2022-11-29T20:58:39.900Z,31.73
2022-11-29T21:01:07.665Z,32.07
2022-11-29T21:03:35.037Z,33.97
2022-11-29T21:06:05.081Z,33.43
2022-11-29T21:08:32.633Z,34.00
2022-11-29T21:11:06.725Z,33.13
2022-11-29T21:13:34.660Z,34.80
2022-11-29T21:16:02.582Z,32.67
2022-11-29T21:18:31.212Z,33.60
2022-11-29T21:21:51.388Z,33.70
2022-11-29T21:24:46.027Z,32.90
2022-11-29T21:27:18.722Z,33.43
2022-11-29T21:29:46.068Z,33.33
2022-11-29T21:32:25.265Z,33.17
2022-11-29T21:34:53.087Z,33.03
2022-11-29T21:37:26.232Z,33.27
2022-11-29T21:39:55.606Z,34.50
2022-11-29T21:42:22.817Z,33.67
2022-11-29T21:44:49.949Z,33.90
2022-11-29T21:47:17.177Z,32.37
2022-11-29T21:49:45.020Z,34.00
2022-11-29T21:52:14.415Z,32.50
2022-11-29T21:54:45.332Z,33.17
2022-11-29T21:57:12.791Z,34.27
2022-11-29T21:59:40.005Z,32.57
2022-11-29T22:02:07.591Z,32.70
2022-11-29T22:04:34.798Z,33.30
2022-11-29T22:07:01.957Z,34.00
2022-11-29T22:09:29.485Z,33.87
2022-11-29T22:11:58.931Z,32.87
2022-11-29T22:14:26.071Z,33.57
2022-11-29T22:17:01.545Z,32.93
2022-11-29T22:19:35.107Z,32.97
2022-11-29T22:22:05.800Z,32.80
2022-11-29T22:24:36.706Z,32.67
2022-11-29T22:27:04.331Z,33.03
2022-11-29T22:29:31.526Z,32.87
2022-11-29T22:31:59.561Z,33.23
2022-11-29T22:34:27.504Z,32.43
2022-11-29T22:36:55.583Z,31.53
2022-11-29T22:39:24.130Z,33.73
2022-11-29T22:41:54.714Z,32.50
2022-11-29T22:44:25.738Z,34.93
2022-11-29T22:46:52.994Z,32.77
2022-11-29T22:49:20.249Z,32.97
2022-11-29T22:51:47.534Z,32.00
2022-11-29T22:54:17.960Z,32.37
2022-11-29T22:56:45.937Z,32.87
2022-11-29T22:59:13.282Z,32.27
2022-11-29T23:01:41.701Z,32.80
2022-11-29T23:04:10.895Z,33.00
2022-11-29T23:06:45.792Z,33.17
2022-11-29T23:09:21.253Z,33.70
2022-11-29T23:11:55.769Z,31.90
2022-11-29T23:14:24.231Z,32.37
2022-11-29T23:16:52.131Z,32.53
2022-11-29T23:19:20.029Z,33.80
2022-11-29T23:21:47.361Z,31.73
2022-11-29T23:24:15.798Z,33.07
2022-11-29T23:26:46.418Z,32.03
2022-11-29T23:29:17.639Z,33.03
2022-11-29T23:31:46.579Z,31.93
2022-11-29T23:34:14.112Z,34.77
2022-11-29T23:36:41.697Z,34.73
2022-11-29T23:39:08.910Z,33.33
2022-11-29T23:41:36.775Z,35.43
2022-11-29T23:44:09.267Z,34.57
2022-11-29T23:46:36.734Z,34.97
2022-11-29T23:49:04.273Z,32.87
2022-11-29T23:51:31.716Z,34.03
2022-11-29T23:53:58.807Z,33.83
2022-11-29T23:56:26.335Z,34.27
2022-11-29T23:58:53.504Z,33.70
